sensor_id;sensor_type;location;lat;lon;timestamp;P1;durP1;ratioP1;P2;durP2;ratioP2
67076;SDS011;53991;46.364;17.008;2022-08-01T00:00:37;6.20;;;5.60;;
67076;SDS011;53991;46.364;17.008;2022-08-01T00:03:39;6.25;;;5.32;;
67076;SDS011;53991;46.364;17.008;2022-08-01T00:06:41;6.05;;;5.55;;
67076;SDS011;53991;46.364;17.008;2022-08-01T00:09:43;6.18;;;5.10;;
67076;SDS011;53991;46.364;17.008;2022-08-01T00:12:45;6.70;;;6.20;;
67076;SDS011;53991;46.364;17.008;2022-08-01T00:18:54;6.28;;;5.78;;
67076;SDS011;53991;46.364;17.008;2022-08-01T00:21:56;6.30;;;5.00;;
67076;SDS011;53991;46.364;17.008;2022-08-01T00:24:58;5.93;;;5.43;;
67076;SDS011;53991;46.364;17.008;2022-08-01T00:28:01;6.78;;;6.28;;
67076;SDS011;53991;46.364;17.008;2022-08-01T00:31:04;5.90;;;5.40;;
67076;SDS011;53991;46.364;17.008;2022-08-01T00:34:06;7.40;;;6.72;;
67076;SDS011;53991;46.364;17.008;2022-08-01T00:37:08;6.88;;;6.38;;
67076;SDS011;53991;46.364;17.008;2022-08-01T00:40:14;7.85;;;7.10;;
67076;SDS011;53991;46.364;17.008;2022-08-01T00:43:15;7.22;;;6.50;;
67076;SDS011;53991;46.364;17.008;2022-08-01T00:46:18;6.30;;;5.80;;
67076;SDS011;53991;46.364;17.008;2022-08-01T00:49:20;6.88;;;6.18;;
67076;SDS011;53991;46.364;17.008;2022-08-01T00:52:22;6.85;;;6.25;;
67076;SDS011;53991;46.364;17.008;2022-08-01T00:55:24;7.18;;;6.47;;
67076;SDS011;53991;46.364;17.008;2022-08-01T00:58:27;6.68;;;6.18;;
67076;SDS011;53991;46.364;17.008;2022-08-01T01:01:30;6.60;;;6.07;;
67076;SDS011;53991;46.364;17.008;2022-08-01T01:04:40;7.30;;;6.60;;
67076;SDS011;53991;46.364;17.008;2022-08-01T01:11:17;7.57;;;6.88;;
67076;SDS011;53991;46.364;17.008;2022-08-01T01:18:03;7.32;;;6.63;;
67076;SDS011;53991;46.364;17.008;2022-08-01T01:25:04;7.63;;;5.95;;
67076;SDS011;53991;46.364;17.008;2022-08-01T01:31:17;7.65;;;6.90;;
67076;SDS011;53991;46.364;17.008;2022-08-01T01:34:21;7.88;;;6.20;;
67076;SDS011;53991;46.364;17.008;2022-08-01T01:37:25;7.05;;;6.35;;
67076;SDS011;53991;46.364;17.008;2022-08-01T01:40:30;8.35;;;6.00;;
67076;SDS011;53991;46.364;17.008;2022-08-01T01:43:34;6.68;;;5.95;;
67076;SDS011;53991;46.364;17.008;2022-08-01T01:46:37;6.72;;;6.20;;
67076;SDS011;53991;46.364;17.008;2022-08-01T01:49:41;7.50;;;5.97;;
67076;SDS011;53991;46.364;17.008;2022-08-01T01:52:47;6.55;;;6.05;;
67076;SDS011;53991;46.364;17.008;2022-08-01T01:55:52;7.00;;;6.40;;
67076;SDS011;53991;46.364;17.008;2022-08-01T01:58:57;6.30;;;5.75;;
67076;SDS011;53991;46.364;17.008;2022-08-01T02:02:03;7.00;;;6.40;;
67076;SDS011;53991;46.364;17.008;2022-08-01T02:05:08;7.15;;;6.28;;
67076;SDS011;53991;46.364;17.008;2022-08-01T02:08:13;5.90;;;5.40;;
67076;SDS011;53991;46.364;17.008;2022-08-01T02:11:18;6.45;;;5.85;;
67076;SDS011;53991;46.364;17.008;2022-08-01T02:14:20;6.35;;;5.85;;
67076;SDS011;53991;46.364;17.008;2022-08-01T02:17:24;6.97;;;6.43;;
67076;SDS011;53991;46.364;17.008;2022-08-01T02:20:29;8.27;;;6.93;;
67076;SDS011;53991;46.364;17.008;2022-08-01T02:23:32;7.82;;;6.30;;
67076;SDS011;53991;46.364;17.008;2022-08-01T02:26:38;6.47;;;5.88;;
67076;SDS011;53991;46.364;17.008;2022-08-01T02:29:44;6.10;;;5.18;;
67076;SDS011;53991;46.364;17.008;2022-08-01T02:32:51;7.57;;;6.20;;
67076;SDS011;53991;46.364;17.008;2022-08-01T02:35:59;5.72;;;5.30;;
67076;SDS011;53991;46.364;17.008;2022-08-01T02:39:23;7.18;;;5.53;;
67076;SDS011;53991;46.364;17.008;2022-08-01T02:42:29;6.32;;;5.82;;
67076;SDS011;53991;46.364;17.008;2022-08-01T02:45:32;6.13;;;5.53;;
67076;SDS011;53991;46.364;17.008;2022-08-01T02:48:38;6.63;;;5.93;;
67076;SDS011;53991;46.364;17.008;2022-08-01T02:51:42;6.43;;;5.82;;
67076;SDS011;53991;46.364;17.008;2022-08-01T02:54:48;7.13;;;6.13;;
67076;SDS011;53991;46.364;17.008;2022-08-01T02:57:53;6.28;;;5.80;;
67076;SDS011;53991;46.364;17.008;2022-08-01T03:01:01;6.75;;;6.15;;
67076;SDS011;53991;46.364;17.008;2022-08-01T03:04:05;7.00;;;6.32;;
67076;SDS011;53991;46.364;17.008;2022-08-01T03:07:09;7.75;;;6.57;;
67076;SDS011;53991;46.364;17.008;2022-08-01T03:10:12;6.72;;;6.13;;
67076;SDS011;53991;46.364;17.008;2022-08-01T03:13:17;7.70;;;6.03;;
67076;SDS011;53991;46.364;17.008;2022-08-01T03:16:21;7.22;;;5.65;;
67076;SDS011;53991;46.364;17.008;2022-08-01T03:19:25;6.97;;;6.35;;
67076;SDS011;53991;46.364;17.008;2022-08-01T03:22:29;6.57;;;5.80;;
67076;SDS011;53991;46.364;17.008;2022-08-01T03:25:34;6.97;;;6.38;;
67076;SDS011;53991;46.364;17.008;2022-08-01T03:28:39;8.32;;;5.82;;
67076;SDS011;53991;46.364;17.008;2022-08-01T03:31:43;6.75;;;5.95;;
67076;SDS011;53991;46.364;17.008;2022-08-01T03:34:47;6.63;;;6.13;;
67076;SDS011;53991;46.364;17.008;2022-08-01T03:37:50;8.20;;;5.95;;
67076;SDS011;53991;46.364;17.008;2022-08-01T03:41:16;7.13;;;6.43;;
67076;SDS011;53991;46.364;17.008;2022-08-01T03:44:22;7.30;;;6.60;;
67076;SDS011;53991;46.364;17.008;2022-08-01T03:47:31;7.68;;;6.35;;
67076;SDS011;53991;46.364;17.008;2022-08-01T03:50:49;6.88;;;6.28;;
67076;SDS011;53991;46.364;17.008;2022-08-01T03:53:52;12.38;;;6.75;;
67076;SDS011;53991;46.364;17.008;2022-08-01T03:56:56;6.95;;;6.25;;
67076;SDS011;53991;46.364;17.008;2022-08-01T03:59:59;7.45;;;6.80;;
67076;SDS011;53991;46.364;17.008;2022-08-01T04:03:02;6.78;;;6.18;;
67076;SDS011;53991;46.364;17.008;2022-08-01T04:09:07;6.30;;;5.70;;
67076;SDS011;53991;46.364;17.008;2022-08-01T04:12:14;10.02;;;7.35;;
67076;SDS011;53991;46.364;17.008;2022-08-01T04:15:16;7.10;;;6.45;;
67076;SDS011;53991;46.364;17.008;2022-08-01T04:18:18;10.27;;;6.63;;
67076;SDS011;53991;46.364;17.008;2022-08-01T04:21:22;7.13;;;6.43;;
67076;SDS011;53991;46.364;17.008;2022-08-01T04:24:26;7.47;;;6.85;;
67076;SDS011;53991;46.364;17.008;2022-08-01T04:27:30;7.10;;;6.47;;
67076;SDS011;53991;46.364;17.008;2022-08-01T04:30:53;7.70;;;6.93;;
67076;SDS011;53991;46.364;17.008;2022-08-01T04:34:02;7.32;;;6.70;;
67076;SDS011;53991;46.364;17.008;2022-08-01T04:37:10;8.48;;;7.20;;
67076;SDS011;53991;46.364;17.008;2022-08-01T04:40:13;10.48;;;7.32;;
67076;SDS011;53991;46.364;17.008;2022-08-01T04:43:17;7.20;;;6.50;;
67076;SDS011;53991;46.364;17.008;2022-08-01T04:46:20;6.10;;;5.60;;
67076;SDS011;53991;46.364;17.008;2022-08-01T04:49:23;6.38;;;5.88;;
67076;SDS011;53991;46.364;17.008;2022-08-01T04:52:32;7.00;;;5.97;;
67076;SDS011;53991;46.364;17.008;2022-08-01T04:55:35;8.85;;;5.95;;
67076;SDS011;53991;46.364;17.008;2022-08-01T04:58:37;6.80;;;5.72;;
67076;SDS011;53991;46.364;17.008;2022-08-01T05:01:39;7.30;;;5.63;;
67076;SDS011;53991;46.364;17.008;2022-08-01T05:04:42;6.57;;;5.85;;
67076;SDS011;53991;46.364;17.008;2022-08-01T05:07:45;5.88;;;5.35;;
67076;SDS011;53991;46.364;17.008;2022-08-01T05:10:47;5.72;;;5.30;;
67076;SDS011;53991;46.364;17.008;2022-08-01T05:13:49;6.88;;;6.07;;
67076;SDS011;53991;46.364;17.008;2022-08-01T05:16:51;6.25;;;5.57;;
67076;SDS011;53991;46.364;17.008;2022-08-01T05:19:53;13.02;;;5.95;;
67076;SDS011;53991;46.364;17.008;2022-08-01T05:22:55;6.07;;;5.05;;
67076;SDS011;53991;46.364;17.008;2022-08-01T05:25:58;5.78;;;5.18;;
67076;SDS011;53991;46.364;17.008;2022-08-01T05:29:00;6.35;;;5.60;;
67076;SDS011;53991;46.364;17.008;2022-08-01T05:32:02;5.20;;;4.72;;
67076;SDS011;53991;46.364;17.008;2022-08-01T05:35:05;5.40;;;3.95;;
67076;SDS011;53991;46.364;17.008;2022-08-01T05:38:07;4.03;;;3.67;;
67076;SDS011;53991;46.364;17.008;2022-08-01T05:41:14;5.07;;;4.45;;
67076;SDS011;53991;46.364;17.008;2022-08-01T05:44:16;4.88;;;3.50;;
67076;SDS011;53991;46.364;17.008;2022-08-01T05:47:18;4.03;;;3.63;;
67076;SDS011;53991;46.364;17.008;2022-08-01T05:50:20;7.20;;;3.85;;
67076;SDS011;53991;46.364;17.008;2022-08-01T05:53:22;4.65;;;4.20;;
67076;SDS011;53991;46.364;17.008;2022-08-01T05:56:24;9.23;;;4.03;;
67076;SDS011;53991;46.364;17.008;2022-08-01T05:59:32;5.32;;;3.80;;
67076;SDS011;53991;46.364;17.008;2022-08-01T06:02:34;4.80;;;3.67;;
67076;SDS011;53991;46.364;17.008;2022-08-01T06:05:40;4.50;;;3.13;;
67076;SDS011;53991;46.364;17.008;2022-08-01T06:08:42;3.50;;;3.20;;
67076;SDS011;53991;46.364;17.008;2022-08-01T06:11:44;4.53;;;2.83;;
67076;SDS011;53991;46.364;17.008;2022-08-01T06:14:46;3.25;;;2.83;;
67076;SDS011;53991;46.364;17.008;2022-08-01T06:17:48;3.28;;;3.03;;
67076;SDS011;53991;46.364;17.008;2022-08-01T06:20:50;3.42;;;3.13;;
67076;SDS011;53991;46.364;17.008;2022-08-01T06:23:52;2.58;;;2.38;;
67076;SDS011;53991;46.364;17.008;2022-08-01T06:26:54;3.35;;;2.15;;
67076;SDS011;53991;46.364;17.008;2022-08-01T06:29:56;2.50;;;2.30;;
67076;SDS011;53991;46.364;17.008;2022-08-01T06:32:58;4.50;;;2.80;;
67076;SDS011;53991;46.364;17.008;2022-08-01T06:36:00;3.80;;;2.35;;
67076;SDS011;53991;46.364;17.008;2022-08-01T06:39:01;2.38;;;2.17;;
67076;SDS011;53991;46.364;17.008;2022-08-01T06:42:03;3.20;;;2.22;;
67076;SDS011;53991;46.364;17.008;2022-08-01T06:45:06;2.72;;;2.53;;
67076;SDS011;53991;46.364;17.008;2022-08-01T06:48:13;2.60;;;2.40;;
67076;SDS011;53991;46.364;17.008;2022-08-01T06:51:15;3.65;;;2.42;;
67076;SDS011;53991;46.364;17.008;2022-08-01T06:54:17;2.63;;;2.42;;
67076;SDS011;53991;46.364;17.008;2022-08-01T06:57:18;3.03;;;2.58;;
67076;SDS011;53991;46.364;17.008;2022-08-01T07:00:21;3.85;;;2.83;;
67076;SDS011;53991;46.364;17.008;2022-08-01T07:03:25;3.78;;;2.53;;
67076;SDS011;53991;46.364;17.008;2022-08-01T07:06:48;3.33;;;2.90;;
67076;SDS011;53991;46.364;17.008;2022-08-01T07:09:50;3.45;;;2.65;;
67076;SDS011;53991;46.364;17.008;2022-08-01T07:12:53;4.82;;;2.67;;
67076;SDS011;53991;46.364;17.008;2022-08-01T07:15:55;3.58;;;2.45;;
67076;SDS011;53991;46.364;17.008;2022-08-01T07:18:57;3.03;;;2.83;;
67076;SDS011;53991;46.364;17.008;2022-08-01T07:21:59;4.57;;;2.75;;
67076;SDS011;53991;46.364;17.008;2022-08-01T07:25:04;4.60;;;2.75;;
67076;SDS011;53991;46.364;17.008;2022-08-01T07:28:07;5.85;;;4.50;;
67076;SDS011;53991;46.364;17.008;2022-08-01T07:31:09;3.28;;;2.70;;
67076;SDS011;53991;46.364;17.008;2022-08-01T07:34:11;3.40;;;2.88;;
67076;SDS011;53991;46.364;17.008;2022-08-01T07:37:13;3.47;;;3.15;;
67076;SDS011;53991;46.364;17.008;2022-08-01T07:40:15;4.78;;;3.50;;
67076;SDS011;53991;46.364;17.008;2022-08-01T07:43:18;2.47;;;2.38;;
67076;SDS011;53991;46.364;17.008;2022-08-01T07:46:20;2.72;;;2.53;;
67076;SDS011;53991;46.364;17.008;2022-08-01T07:52:24;2.92;;;2.25;;
67076;SDS011;53991;46.364;17.008;2022-08-01T07:55:26;4.82;;;2.40;;
67076;SDS011;53991;46.364;17.008;2022-08-01T07:58:30;3.17;;;2.50;;
67076;SDS011;53991;46.364;17.008;2022-08-01T08:01:33;2.88;;;2.67;;
67076;SDS011;53991;46.364;17.008;2022-08-01T08:04:35;7.95;;;2.90;;
67076;SDS011;53991;46.364;17.008;2022-08-01T08:10:39;6.40;;;3.70;;
67076;SDS011;53991;46.364;17.008;2022-08-01T08:13:41;2.63;;;2.42;;
67076;SDS011;53991;46.364;17.008;2022-08-01T08:16:43;4.75;;;3.08;;
67076;SDS011;53991;46.364;17.008;2022-08-01T08:19:46;3.63;;;2.75;;
67076;SDS011;53991;46.364;17.008;2022-08-01T08:22:48;3.38;;;2.35;;
67076;SDS011;53991;46.364;17.008;2022-08-01T08:25:49;5.05;;;2.53;;
67076;SDS011;53991;46.364;17.008;2022-08-01T08:28:51;3.00;;;2.17;;
67076;SDS011;53991;46.364;17.008;2022-08-01T08:31:54;10.55;;;2.97;;
67076;SDS011;53991;46.364;17.008;2022-08-01T08:34:57;2.45;;;2.28;;
67076;SDS011;53991;46.364;17.008;2022-08-01T08:37:59;2.33;;;2.08;;
67076;SDS011;53991;46.364;17.008;2022-08-01T08:41:02;3.25;;;2.70;;
67076;SDS011;53991;46.364;17.008;2022-08-01T08:44:04;2.15;;;2.05;;
67076;SDS011;53991;46.364;17.008;2022-08-01T08:47:12;3.53;;;2.60;;
67076;SDS011;53991;46.364;17.008;2022-08-01T08:50:20;3.10;;;2.80;;
67076;SDS011;53991;46.364;17.008;2022-08-01T08:53:23;2.90;;;2.58;;
67076;SDS011;53991;46.364;17.008;2022-08-01T08:56:35;2.28;;;2.13;;
67076;SDS011;53991;46.364;17.008;2022-08-01T08:59:38;3.13;;;2.53;;
67076;SDS011;53991;46.364;17.008;2022-08-01T09:02:44;4.35;;;2.58;;
67076;SDS011;53991;46.364;17.008;2022-08-01T09:05:47;3.10;;;2.90;;
67076;SDS011;53991;46.364;17.008;2022-08-01T09:08:49;3.38;;;2.08;;
67076;SDS011;53991;46.364;17.008;2022-08-01T09:11:51;2.33;;;2.13;;
67076;SDS011;53991;46.364;17.008;2022-08-01T09:14:58;2.45;;;2.25;;
67076;SDS011;53991;46.364;17.008;2022-08-01T09:18:00;2.42;;;2.25;;
67076;SDS011;53991;46.364;17.008;2022-08-01T09:21:21;4.60;;;2.80;;
67076;SDS011;53991;46.364;17.008;2022-08-01T09:24:24;3.25;;;2.67;;
67076;SDS011;53991;46.364;17.008;2022-08-01T09:27:31;3.58;;;3.03;;
67076;SDS011;53991;46.364;17.008;2022-08-01T09:30:37;3.70;;;2.97;;
67076;SDS011;53991;46.364;17.008;2022-08-01T09:33:51;2.50;;;2.30;;
67076;SDS011;53991;46.364;17.008;2022-08-01T09:37:01;3.97;;;2.15;;
67076;SDS011;53991;46.364;17.008;2022-08-01T09:40:06;4.47;;;2.38;;
67076;SDS011;53991;46.364;17.008;2022-08-01T09:43:11;3.25;;;2.50;;
67076;SDS011;53991;46.364;17.008;2022-08-01T09:46:15;3.63;;;2.72;;
67076;SDS011;53991;46.364;17.008;2022-08-01T09:49:30;2.90;;;2.67;;
67076;SDS011;53991;46.364;17.008;2022-08-01T09:52:54;3.70;;;2.70;;
67076;SDS011;53991;46.364;17.008;2022-08-01T09:56:08;3.35;;;2.55;;
67076;SDS011;53991;46.364;17.008;2022-08-01T09:59:11;3.85;;;2.58;;
67076;SDS011;53991;46.364;17.008;2022-08-01T10:02:26;5.00;;;2.42;;
67076;SDS011;53991;46.364;17.008;2022-08-01T10:05:30;4.38;;;2.78;;
67076;SDS011;53991;46.364;17.008;2022-08-01T10:08:47;2.50;;;2.30;;
67076;SDS011;53991;46.364;17.008;2022-08-01T10:11:50;3.75;;;2.70;;
67076;SDS011;53991;46.364;17.008;2022-08-01T10:17:55;3.25;;;2.33;;
67076;SDS011;53991;46.364;17.008;2022-08-01T10:20:59;2.60;;;2.13;;
67076;SDS011;53991;46.364;17.008;2022-08-01T10:24:09;5.82;;;2.85;;
67076;SDS011;53991;46.364;17.008;2022-08-01T10:27:13;2.70;;;2.35;;
67076;SDS011;53991;46.364;17.008;2022-08-01T10:30:24;2.53;;;2.33;;
67076;SDS011;53991;46.364;17.008;2022-08-01T10:33:28;3.25;;;2.47;;
67076;SDS011;53991;46.364;17.008;2022-08-01T10:36:51;2.28;;;2.08;;
67076;SDS011;53991;46.364;17.008;2022-08-01T10:39:54;4.03;;;1.95;;
67076;SDS011;53991;46.364;17.008;2022-08-01T10:43:16;6.55;;;2.05;;
67076;SDS011;53991;46.364;17.008;2022-08-01T10:46:22;2.72;;;1.90;;
67076;SDS011;53991;46.364;17.008;2022-08-01T10:49:26;4.72;;;2.13;;
67076;SDS011;53991;46.364;17.008;2022-08-01T10:52:31;3.10;;;1.92;;
67076;SDS011;53991;46.364;17.008;2022-08-01T10:55:50;5.57;;;1.90;;
67076;SDS011;53991;46.364;17.008;2022-08-01T10:59:02;7.30;;;2.10;;
67076;SDS011;53991;46.364;17.008;2022-08-01T11:02:07;2.08;;;1.88;;
67076;SDS011;53991;46.364;17.008;2022-08-01T11:08:22;6.00;;;2.03;;
67076;SDS011;53991;46.364;17.008;2022-08-01T11:11:24;2.65;;;2.17;;
67076;SDS011;53991;46.364;17.008;2022-08-01T11:17:48;2.42;;;1.58;;
67076;SDS011;53991;46.364;17.008;2022-08-01T11:20:56;3.80;;;2.00;;
67076;SDS011;53991;46.364;17.008;2022-08-01T11:37:23;2.03;;;1.80;;
67076;SDS011;53991;46.364;17.008;2022-08-01T11:40:31;4.15;;;2.22;;
67076;SDS011;53991;46.364;17.008;2022-08-01T11:43:33;4.10;;;1.92;;
67076;SDS011;53991;46.364;17.008;2022-08-01T11:49:55;2.97;;;2.22;;
67076;SDS011;53991;46.364;17.008;2022-08-01T11:52:58;2.60;;;2.40;;
67076;SDS011;53991;46.364;17.008;2022-08-01T11:56:05;3.17;;;2.38;;
67076;SDS011;53991;46.364;17.008;2022-08-01T11:59:07;2.58;;;2.20;;
67076;SDS011;53991;46.364;17.008;2022-08-01T12:02:17;2.83;;;2.53;;
67076;SDS011;53991;46.364;17.008;2022-08-01T12:05:32;3.47;;;2.30;;
67076;SDS011;53991;46.364;17.008;2022-08-01T12:08:35;5.05;;;2.05;;
67076;SDS011;53991;46.364;17.008;2022-08-01T12:11:38;2.63;;;2.22;;
67076;SDS011;53991;46.364;17.008;2022-08-01T12:14:40;3.00;;;2.10;;
67076;SDS011;53991;46.364;17.008;2022-08-01T12:17:46;3.17;;;2.45;;
67076;SDS011;53991;46.364;17.008;2022-08-01T12:21:02;7.72;;;2.60;;
67076;SDS011;53991;46.364;17.008;2022-08-01T12:24:04;2.80;;;2.42;;
67076;SDS011;53991;46.364;17.008;2022-08-01T12:27:07;2.75;;;2.47;;
67076;SDS011;53991;46.364;17.008;2022-08-01T12:30:11;2.70;;;2.10;;
67076;SDS011;53991;46.364;17.008;2022-08-01T12:33:20;5.07;;;1.65;;
67076;SDS011;53991;46.364;17.008;2022-08-01T12:36:28;2.03;;;1.88;;
67076;SDS011;53991;46.364;17.008;2022-08-01T12:39:32;2.47;;;2.28;;
67076;SDS011;53991;46.364;17.008;2022-08-01T12:42:36;2.28;;;2.10;;
67076;SDS011;53991;46.364;17.008;2022-08-01T12:45:40;6.00;;;2.67;;
67076;SDS011;53991;46.364;17.008;2022-08-01T12:48:57;2.78;;;2.03;;
67076;SDS011;53991;46.364;17.008;2022-08-01T12:51:59;6.40;;;2.28;;
67076;SDS011;53991;46.364;17.008;2022-08-01T12:58:16;4.13;;;1.75;;
67076;SDS011;53991;46.364;17.008;2022-08-01T13:01:24;5.13;;;2.05;;
67076;SDS011;53991;46.364;17.008;2022-08-01T13:04:27;5.07;;;1.60;;
67076;SDS011;53991;46.364;17.008;2022-08-01T13:07:40;2.65;;;1.48;;
67076;SDS011;53991;46.364;17.008;2022-08-01T13:10:53;2.30;;;1.48;;
67076;SDS011;53991;46.364;17.008;2022-08-01T13:14:25;1.73;;;1.63;;
67076;SDS011;53991;46.364;17.008;2022-08-01T13:17:34;4.72;;;1.70;;
67076;SDS011;53991;46.364;17.008;2022-08-01T13:20:36;2.75;;;1.70;;
67076;SDS011;53991;46.364;17.008;2022-08-01T13:23:38;3.35;;;1.65;;
67076;SDS011;53991;46.364;17.008;2022-08-01T13:27:02;1.65;;;1.30;;
67076;SDS011;53991;46.364;17.008;2022-08-01T13:36:19;2.17;;;1.45;;
67076;SDS011;53991;46.364;17.008;2022-08-01T13:39:29;4.43;;;1.70;;
67076;SDS011;53991;46.364;17.008;2022-08-01T13:42:31;1.60;;;1.50;;
67076;SDS011;53991;46.364;17.008;2022-08-01T13:48:35;2.25;;;2.03;;
67076;SDS011;53991;46.364;17.008;2022-08-01T13:57:41;2.78;;;1.63;;
67076;SDS011;53991;46.364;17.008;2022-08-01T14:03:46;1.80;;;1.70;;
67076;SDS011;53991;46.364;17.008;2022-08-01T14:06:48;3.38;;;1.70;;
67076;SDS011;53991;46.364;17.008;2022-08-01T14:13:11;2.95;;;1.60;;
67076;SDS011;53991;46.364;17.008;2022-08-01T14:16:14;6.55;;;1.35;;
67076;SDS011;53991;46.364;17.008;2022-08-01T14:19:18;2.05;;;1.85;;
67076;SDS011;53991;46.364;17.008;2022-08-01T14:22:39;1.80;;;1.70;;
67076;SDS011;53991;46.364;17.008;2022-08-01T14:25:41;4.00;;;1.65;;
67076;SDS011;53991;46.364;17.008;2022-08-01T14:29:03;4.78;;;1.60;;
67076;SDS011;53991;46.364;17.008;2022-08-01T14:32:05;4.72;;;2.20;;
67076;SDS011;53991;46.364;17.008;2022-08-01T14:35:08;4.20;;;1.77;;
67076;SDS011;53991;46.364;17.008;2022-08-01T14:38:10;1.63;;;1.50;;
67076;SDS011;53991;46.364;17.008;2022-08-01T14:41:22;3.67;;;1.50;;
67076;SDS011;53991;46.364;17.008;2022-08-01T14:44:24;2.63;;;1.52;;
67076;SDS011;53991;46.364;17.008;2022-08-01T14:47:33;3.67;;;2.20;;
67076;SDS011;53991;46.364;17.008;2022-08-01T14:50:36;2.05;;;1.80;;
67076;SDS011;53991;46.364;17.008;2022-08-01T14:56:43;3.70;;;2.13;;
67076;SDS011;53991;46.364;17.008;2022-08-01T14:59:48;2.05;;;1.90;;
67076;SDS011;53991;46.364;17.008;2022-08-01T15:02:50;1.85;;;1.60;;
67076;SDS011;53991;46.364;17.008;2022-08-01T15:05:54;4.22;;;2.08;;
67076;SDS011;53991;46.364;17.008;2022-08-01T15:08:55;5.45;;;2.25;;
67076;SDS011;53991;46.364;17.008;2022-08-01T15:11:57;2.90;;;2.50;;
67076;SDS011;53991;46.364;17.008;2022-08-01T15:14:59;4.20;;;1.75;;
67076;SDS011;53991;46.364;17.008;2022-08-01T15:21:03;4.63;;;1.83;;
67076;SDS011;53991;46.364;17.008;2022-08-01T15:24:05;2.95;;;1.80;;
67076;SDS011;53991;46.364;17.008;2022-08-01T15:27:08;4.78;;;2.28;;
67076;SDS011;53991;46.364;17.008;2022-08-01T15:30:11;8.45;;;2.20;;
67076;SDS011;53991;46.364;17.008;2022-08-01T15:33:14;2.00;;;1.90;;
67076;SDS011;53991;46.364;17.008;2022-08-01T15:36:16;2.40;;;1.30;;
67076;SDS011;53991;46.364;17.008;2022-08-01T15:39:26;1.17;;;1.10;;
67076;SDS011;53991;46.364;17.008;2022-08-01T15:42:28;1.63;;;1.52;;
67076;SDS011;53991;46.364;17.008;2022-08-01T15:45:30;2.72;;;1.17;;
67076;SDS011;53991;46.364;17.008;2022-08-01T15:48:47;1.52;;;1.42;;
67076;SDS011;53991;46.364;17.008;2022-08-01T15:51:49;1.48;;;1.38;;
67076;SDS011;53991;46.364;17.008;2022-08-01T15:54:51;1.17;;;1.05;;
67076;SDS011;53991;46.364;17.008;2022-08-01T15:57:53;2.70;;;1.23;;
67076;SDS011;53991;46.364;17.008;2022-08-01T16:00:56;3.22;;;1.63;;
67076;SDS011;53991;46.364;17.008;2022-08-01T16:03:58;5.20;;;1.80;;
67076;SDS011;53991;46.364;17.008;2022-08-01T16:07:00;2.65;;;1.70;;
67076;SDS011;53991;46.364;17.008;2022-08-01T16:10:02;2.08;;;1.92;;
67076;SDS011;53991;46.364;17.008;2022-08-01T16:13:05;3.05;;;1.80;;
67076;SDS011;53991;46.364;17.008;2022-08-01T16:16:08;3.67;;;1.80;;
67076;SDS011;53991;46.364;17.008;2022-08-01T16:19:11;4.25;;;1.35;;
67076;SDS011;53991;46.364;17.008;2022-08-01T16:22:19;2.72;;;1.65;;
67076;SDS011;53991;46.364;17.008;2022-08-01T16:25:21;2.60;;;1.33;;
67076;SDS011;53991;46.364;17.008;2022-08-01T16:28:23;2.70;;;1.38;;
67076;SDS011;53991;46.364;17.008;2022-08-01T16:31:26;3.53;;;1.75;;
67076;SDS011;53991;46.364;17.008;2022-08-01T16:34:48;3.70;;;1.33;;
67076;SDS011;53991;46.364;17.008;2022-08-01T16:40:52;7.93;;;1.60;;
67076;SDS011;53991;46.364;17.008;2022-08-01T16:43:56;2.80;;;1.10;;
67076;SDS011;53991;46.364;17.008;2022-08-01T16:46:58;6.43;;;1.40;;
67076;SDS011;53991;46.364;17.008;2022-08-01T16:50:00;2.65;;;1.20;;
67076;SDS011;53991;46.364;17.008;2022-08-01T16:53:02;2.75;;;1.60;;
67076;SDS011;53991;46.364;17.008;2022-08-01T16:56:04;3.80;;;1.10;;
67076;SDS011;53991;46.364;17.008;2022-08-01T16:59:06;5.43;;;1.58;;
67076;SDS011;53991;46.364;17.008;2022-08-01T17:02:08;6.43;;;1.35;;
67076;SDS011;53991;46.364;17.008;2022-08-01T17:05:11;3.92;;;1.40;;
67076;SDS011;53991;46.364;17.008;2022-08-01T17:08:13;2.95;;;1.50;;
67076;SDS011;53991;46.364;17.008;2022-08-01T17:11:15;2.65;;;1.45;;
67076;SDS011;53991;46.364;17.008;2022-08-01T17:14:17;4.30;;;1.20;;
67076;SDS011;53991;46.364;17.008;2022-08-01T17:17:20;2.47;;;1.55;;
67076;SDS011;53991;46.364;17.008;2022-08-01T17:20:22;8.02;;;1.35;;
67076;SDS011;53991;46.364;17.008;2022-08-01T17:23:24;6.95;;;1.98;;
67076;SDS011;53991;46.364;17.008;2022-08-01T17:26:26;3.08;;;1.42;;
67076;SDS011;53991;46.364;17.008;2022-08-01T17:29:28;2.70;;;1.00;;
67076;SDS011;53991;46.364;17.008;2022-08-01T17:32:44;2.20;;;1.23;;
67076;SDS011;53991;46.364;17.008;2022-08-01T17:35:46;3.50;;;1.52;;
67076;SDS011;53991;46.364;17.008;2022-08-01T17:38:49;2.58;;;1.42;;
67076;SDS011;53991;46.364;17.008;2022-08-01T17:41:51;8.88;;;1.25;;
67076;SDS011;53991;46.364;17.008;2022-08-01T17:44:53;5.43;;;1.83;;
67076;SDS011;53991;46.364;17.008;2022-08-01T17:47:57;2.95;;;1.63;;
67076;SDS011;53991;46.364;17.008;2022-08-01T17:50:59;11.75;;;2.22;;
67076;SDS011;53991;46.364;17.008;2022-08-01T17:54:01;10.90;;;2.47;;
67076;SDS011;53991;46.364;17.008;2022-08-01T17:57:03;17.63;;;2.10;;
67076;SDS011;53991;46.364;17.008;2022-08-01T18:00:09;6.82;;;2.00;;
67076;SDS011;53991;46.364;17.008;2022-08-01T18:03:11;16.40;;;4.75;;
67076;SDS011;53991;46.364;17.008;2022-08-01T18:09:16;28.35;;;7.00;;
67076;SDS011;53991;46.364;17.008;2022-08-01T18:12:23;16.83;;;4.53;;
67076;SDS011;53991;46.364;17.008;2022-08-01T18:15:25;3.95;;;2.50;;
67076;SDS011;53991;46.364;17.008;2022-08-01T18:18:27;2.72;;;1.58;;
67076;SDS011;53991;46.364;17.008;2022-08-01T18:21:34;4.25;;;2.33;;
67076;SDS011;53991;46.364;17.008;2022-08-01T18:24:42;11.90;;;3.45;;
67076;SDS011;53991;46.364;17.008;2022-08-01T18:27:44;8.18;;;3.67;;
67076;SDS011;53991;46.364;17.008;2022-08-01T18:31:07;8.15;;;3.25;;
67076;SDS011;53991;46.364;17.008;2022-08-01T18:34:09;11.15;;;3.35;;
67076;SDS011;53991;46.364;17.008;2022-08-01T18:37:11;7.40;;;3.17;;
67076;SDS011;53991;46.364;17.008;2022-08-01T18:40:15;7.28;;;2.83;;
67076;SDS011;53991;46.364;17.008;2022-08-01T18:43:23;9.65;;;3.83;;
67076;SDS011;53991;46.364;17.008;2022-08-01T18:46:25;6.70;;;2.85;;
67076;SDS011;53991;46.364;17.008;2022-08-01T18:49:27;6.95;;;3.22;;
67076;SDS011;53991;46.364;17.008;2022-08-01T18:52:29;7.43;;;3.83;;
67076;SDS011;53991;46.364;17.008;2022-08-01T18:55:32;13.50;;;2.83;;
67076;SDS011;53991;46.364;17.008;2022-08-01T18:58:34;8.52;;;3.65;;
67076;SDS011;53991;46.364;17.008;2022-08-01T19:01:36;11.45;;;3.55;;
67076;SDS011;53991;46.364;17.008;2022-08-01T19:04:38;8.57;;;3.05;;
67076;SDS011;53991;46.364;17.008;2022-08-01T19:07:40;8.73;;;3.28;;
67076;SDS011;53991;46.364;17.008;2022-08-01T19:11:02;6.13;;;2.50;;
67076;SDS011;53991;46.364;17.008;2022-08-01T19:14:04;5.60;;;2.20;;
67076;SDS011;53991;46.364;17.008;2022-08-01T19:17:06;5.97;;;2.55;;
67076;SDS011;53991;46.364;17.008;2022-08-01T19:23:11;3.40;;;2.42;;
67076;SDS011;53991;46.364;17.008;2022-08-01T19:26:13;5.47;;;2.42;;
67076;SDS011;53991;46.364;17.008;2022-08-01T19:29:19;3.65;;;2.10;;
67076;SDS011;53991;46.364;17.008;2022-08-01T19:32:23;2.08;;;1.88;;
67076;SDS011;53991;46.364;17.008;2022-08-01T19:38:27;6.38;;;2.28;;
67076;SDS011;53991;46.364;17.008;2022-08-01T19:41:29;7.00;;;2.05;;
67076;SDS011;53991;46.364;17.008;2022-08-01T19:44:31;6.97;;;1.95;;
67076;SDS011;53991;46.364;17.008;2022-08-01T19:47:34;3.17;;;2.47;;
67076;SDS011;53991;46.364;17.008;2022-08-01T19:50:57;4.50;;;2.33;;